sensor_id;sensor_type;location;lat;lon;timestamp;pressure;altitude;pressure_sealevel;temperature;humidity
11525;BME280;5819;49.648;8.330;2024-01-06T00:00:39;99282.66;;;4.02;100.00
11525;BME280;5819;49.648;8.330;2024-01-06T00:03:07;99281.19;;;3.95;100.00
11525;BME280;5819;49.648;8.330;2024-01-06T00:05:35;99288.22;;;3.90;100.00
11525;BME280;5819;49.648;8.330;2024-01-06T00:08:04;99279.97;;;3.81;100.00
11525;BME280;5819;49.648;8.330;2024-01-06T00:10:32;99299.00;;;3.75;100.00
11525;BME280;5819;49.648;8.330;2024-01-06T00:13:00;99300.97;;;3.67;100.00
11525;BME280;5819;49.648;8.330;2024-01-06T00:15:28;99300.34;;;3.60;100.00
11525;BME280;5819;49.648;8.330;2024-01-06T00:17:57;99300.50;;;3.54;100.00
11525;BME280;5819;49.648;8.330;2024-01-06T00:20:25;99302.38;;;3.49;100.00
11525;BME280;5819;49.648;8.330;2024-01-06T00:22:53;99307.75;;;3.42;100.00
11525;BME280;5819;49.648;8.330;2024-01-06T00:25:23;99313.88;;;3.38;100.00
11525;BME280;5819;49.648;8.330;2024-01-06T00:27:50;99317.38;;;3.35;100.00
11525;BME280;5819;49.648;8.330;2024-01-06T00:30:19;99312.97;;;3.39;100.00
11525;BME280;5819;49.648;8.330;2024-01-06T00:32:47;99308.59;;;3.42;100.00
11525;BME280;5819;49.648;8.330;2024-01-06T00:35:17;99309.44;;;3.43;100.00
11525;BME280;5819;49.648;8.330;2024-01-06T00:37:45;99302.91;;;3.60;100.00
11525;BME280;5819;49.648;8.330;2024-01-06T00:40:13;99310.31;;;3.69;100.00
11525;BME280;5819;49.648;8.330;2024-01-06T00:42:41;99316.28;;;3.70;100.00
11525;BME280;5819;49.648;8.330;2024-01-06T00:45:09;99322.19;;;3.73;100.00
11525;BME280;5819;49.648;8.330;2024-01-06T00:47:37;99314.25;;;3.81;100.00
11525;BME280;5819;49.648;8.330;2024-01-06T00:50:04;99321.50;;;3.95;100.00
11525;BME280;5819;49.648;8.330;2024-01-06T00:52:34;99315.97;;;4.07;100.00
11525;BME280;5819;49.648;8.330;2024-01-06T00:55:02;99308.97;;;4.37;100.00
11525;BME280;5819;49.648;8.330;2024-01-06T00:57:30;99308.44;;;4.52;100.00
11525;BME280;5819;49.648;8.330;2024-01-06T00:59:58;99317.66;;;4.57;100.00
11525;BME280;5819;49.648;8.330;2024-01-06T01:02:25;99306.78;;;4.74;100.00
11525;BME280;5819;49.648;8.330;2024-01-06T01:04:53;99304.84;;;4.81;100.00
11525;BME280;5819;49.648;8.330;2024-01-06T01:07:21;99307.84;;;4.92;100.00
11525;BME280;5819;49.648;8.330;2024-01-06T01:09:51;99316.47;;;4.91;100.00
11525;BME280;5819;49.648;8.330;2024-01-06T01:12:19;99319.84;;;4.93;100.00
11525;BME280;5819;49.648;8.330;2024-01-06T01:14:47;99319.00;;;4.92;100.00
11525;BME280;5819;49.648;8.330;2024-01-06T01:17:15;99318.13;;;4.93;100.00
11525;BME280;5819;49.648;8.330;2024-01-06T01:19:42;99323.31;;;4.92;100.00
11525;BME280;5819;49.648;8.330;2024-01-06T01:22:11;99325.78;;;4.95;100.00
11525;BME280;5819;49.648;8.330;2024-01-06T01:24:38;99334.63;;;4.88;100.00
11525;BME280;5819;49.648;8.330;2024-01-06T01:27:08;99327.09;;;4.82;100.00
11525;BME280;5819;49.648;8.330;2024-01-06T01:29:36;99336.69;;;4.78;100.00
11525;BME280;5819;49.648;8.330;2024-01-06T01:32:05;99334.09;;;4.78;100.00
11525;BME280;5819;49.648;8.330;2024-01-06T01:34:33;99335.09;;;4.74;100.00
11525;BME280;5819;49.648;8.330;2024-01-06T01:37:03;99326.38;;;4.78;100.00
11525;BME280;5819;49.648;8.330;2024-01-06T01:39:31;99329.88;;;4.77;100.00
11525;BME280;5819;49.648;8.330;2024-01-06T01:41:59;99330.44;;;4.60;100.00
11525;BME280;5819;49.648;8.330;2024-01-06T01:44:28;99335.19;;;4.48;100.00
11525;BME280;5819;49.648;8.330;2024-01-06T01:46:57;99332.78;;;4.42;100.00
11525;BME280;5819;49.648;8.330;2024-01-06T01:49:26;99339.13;;;4.33;100.00
11525;BME280;5819;49.648;8.330;2024-01-06T01:51:54;99341.69;;;4.33;100.00
11525;BME280;5819;49.648;8.330;2024-01-06T01:54:23;99333.13;;;4.33;100.00
11525;BME280;5819;49.648;8.330;2024-01-06T01:56:50;99340.59;;;4.40;100.00
11525;BME280;5819;49.648;8.330;2024-01-06T01:59:19;99336.13;;;4.45;100.00
11525;BME280;5819;49.648;8.330;2024-01-06T02:01:48;99333.28;;;4.53;100.00
11525;BME280;5819;49.648;8.330;2024-01-06T02:04:17;99337.25;;;4.61;100.00
11525;BME280;5819;49.648;8.330;2024-01-06T02:06:45;99333.34;;;4.76;100.00
11525;BME280;5819;49.648;8.330;2024-01-06T02:09:13;99331.31;;;4.84;100.00
11525;BME280;5819;49.648;8.330;2024-01-06T02:11:41;99329.47;;;4.88;100.00
11525;BME280;5819;49.648;8.330;2024-01-06T02:14:09;99326.63;;;4.95;100.00
11525;BME280;5819;49.648;8.330;2024-01-06T02:16:37;99324.56;;;5.05;100.00
11525;BME280;5819;49.648;8.330;2024-01-06T02:19:08;99333.63;;;5.15;100.00
11525;BME280;5819;49.648;8.330;2024-01-06T02:21:41;99332.06;;;5.11;100.00
11525;BME280;5819;49.648;8.330;2024-01-06T02:24:11;99337.16;;;5.12;100.00
11525;BME280;5819;49.648;8.330;2024-01-06T02:26:39;99335.19;;;5.19;100.00
11525;BME280;5819;49.648;8.330;2024-01-06T02:29:07;99341.16;;;5.21;100.00
11525;BME280;5819;49.648;8.330;2024-01-06T02:31:34;99339.16;;;5.28;100.00
11525;BME280;5819;49.648;8.330;2024-01-06T02:34:03;99342.72;;;5.25;100.00
11525;BME280;5819;49.648;8.330;2024-01-06T02:36:31;99341.88;;;5.25;100.00
11525;BME280;5819;49.648;8.330;2024-01-06T02:38:59;99343.72;;;5.21;100.00
11525;BME280;5819;49.648;8.330;2024-01-06T02:41:29;99352.28;;;5.22;100.00
11525;BME280;5819;49.648;8.330;2024-01-06T02:43:57;99354.47;;;5.32;100.00
11525;BME280;5819;49.648;8.330;2024-01-06T02:46:24;99351.78;;;5.35;100.00
11525;BME280;5819;49.648;8.330;2024-01-06T02:48:52;99355.41;;;5.30;100.00
11525;BME280;5819;49.648;8.330;2024-01-06T02:51:20;99353.03;;;5.25;100.00
11525;BME280;5819;49.648;8.330;2024-01-06T02:53:48;99355.69;;;5.22;100.00
11525;BME280;5819;49.648;8.330;2024-01-06T02:56:16;99350.66;;;5.19;100.00
11525;BME280;5819;49.648;8.330;2024-01-06T02:58:45;99355.66;;;5.24;100.00
11525;BME280;5819;49.648;8.330;2024-01-06T03:01:13;99348.53;;;5.30;100.00
11525;BME280;5819;49.648;8.330;2024-01-06T03:03:41;99345.00;;;5.33;100.00
11525;BME280;5819;49.648;8.330;2024-01-06T03:06:09;99347.41;;;5.37;100.00
11525;BME280;5819;49.648;8.330;2024-01-06T03:08:37;99350.31;;;5.28;100.00
11525;BME280;5819;49.648;8.330;2024-01-06T03:11:05;99350.50;;;5.24;100.00
11525;BME280;5819;49.648;8.330;2024-01-06T03:13:33;99348.88;;;5.21;100.00
11525;BME280;5819;49.648;8.330;2024-01-06T03:16:04;99347.91;;;5.24;100.00
11525;BME280;5819;49.648;8.330;2024-01-06T03:18:32;99352.19;;;5.25;100.00
11525;BME280;5819;49.648;8.330;2024-01-06T03:21:01;99356.63;;;5.21;100.00
11525;BME280;5819;49.648;8.330;2024-01-06T03:23:28;99354.81;;;5.23;100.00
11525;BME280;5819;49.648;8.330;2024-01-06T03:25:56;99360.09;;;5.20;100.00
11525;BME280;5819;49.648;8.330;2024-01-06T03:28:24;99354.81;;;5.23;100.00
11525;BME280;5819;49.648;8.330;2024-01-06T03:30:52;99361.69;;;5.23;100.00
11525;BME280;5819;49.648;8.330;2024-01-06T03:33:21;99372.84;;;5.23;100.00
11525;BME280;5819;49.648;8.330;2024-01-06T03:35:49;99377.13;;;5.24;100.00
11525;BME280;5819;49.648;8.330;2024-01-06T03:38:17;99374.59;;;5.23;100.00
11525;BME280;5819;49.648;8.330;2024-01-06T03:40:45;99377.13;;;5.24;100.00
11525;BME280;5819;49.648;8.330;2024-01-06T03:43:12;99380.38;;;5.29;100.00
11525;BME280;5819;49.648;8.330;2024-01-06T03:45:40;99378.63;;;5.30;100.00
11525;BME280;5819;49.648;8.330;2024-01-06T03:48:08;99385.63;;;5.26;100.00
11525;BME280;5819;49.648;8.330;2024-01-06T03:50:37;99383.78;;;5.30;100.00
11525;BME280;5819;49.648;8.330;2024-01-06T03:53:06;99375.78;;;5.37;100.00
11525;BME280;5819;49.648;8.330;2024-01-06T03:55:33;99374.31;;;5.30;100.00
11525;BME280;5819;49.648;8.330;2024-01-06T03:58:01;99377.00;;;5.27;100.00
11525;BME280;5819;49.648;8.330;2024-01-06T04:00:30;99378.63;;;5.30;100.00
11525;BME280;5819;49.648;8.330;2024-01-06T04:02:57;99384.63;;;5.30;100.00
11525;BME280;5819;49.648;8.330;2024-01-06T04:05:25;99385.69;;;5.25;100.00
11525;BME280;5819;49.648;8.330;2024-01-06T04:07:55;99390.78;;;5.26;100.00
11525;BME280;5819;49.648;8.330;2024-01-06T04:10:22;99394.28;;;5.25;100.00
11525;BME280;5819;49.648;8.330;2024-01-06T04:12:50;99395.22;;;5.23;100.00
11525;BME280;5819;49.648;8.330;2024-01-06T04:15:18;99391.84;;;5.21;100.00
11525;BME280;5819;49.648;8.330;2024-01-06T04:17:48;99397.56;;;5.29;100.00
11525;BME280;5819;49.648;8.330;2024-01-06T04:20:17;99400.03;;;5.32;100.00
11525;BME280;5819;49.648;8.330;2024-01-06T04:22:45;99390.56;;;5.32;100.00
11525;BME280;5819;49.648;8.330;2024-01-06T04:25:14;99387.09;;;5.33;100.00
11525;BME280;5819;49.648;8.330;2024-01-06T04:27:43;99388.84;;;5.33;100.00
11525;BME280;5819;49.648;8.330;2024-01-06T04:30:13;99383.69;;;5.33;100.00
11525;BME280;5819;49.648;8.330;2024-01-06T04:32:41;99385.34;;;5.34;100.00
11525;BME280;5819;49.648;8.330;2024-01-06T04:35:10;99381.16;;;5.31;100.00
11525;BME280;5819;49.648;8.330;2024-01-06T04:37:38;99380.25;;;5.32;100.00
11525;BME280;5819;49.648;8.330;2024-01-06T04:40:07;99381.88;;;5.35;100.00
11525;BME280;5819;49.648;8.330;2024-01-06T04:42:37;99381.88;;;5.35;100.00
11525;BME280;5819;49.648;8.330;2024-01-06T04:45:05;99376.78;;;5.33;100.00
11525;BME280;5819;49.648;8.330;2024-01-06T04:47:34;99375.53;;;5.43;100.00
11525;BME280;5819;49.648;8.330;2024-01-06T04:50:03;99375.41;;;5.46;100.00
11525;BME280;5819;49.648;8.330;2024-01-06T04:52:31;99382.38;;;5.44;100.00
11525;BME280;5819;49.648;8.330;2024-01-06T04:54:59;99383.22;;;5.45;100.00
11525;BME280;5819;49.648;8.330;2024-01-06T04:57:28;99385.13;;;5.40;100.00
11525;BME280;5819;49.648;8.330;2024-01-06T04:59:57;99386.00;;;5.39;100.00
11525;BME280;5819;49.648;8.330;2024-01-06T05:02:26;99382.59;;;5.38;100.00
11525;BME280;5819;49.648;8.330;2024-01-06T05:04:54;99378.28;;;5.39;100.00
11525;BME280;5819;49.648;8.330;2024-01-06T05:07:22;99383.50;;;5.37;100.00
11525;BME280;5819;49.648;8.330;2024-01-06T05:09:49;99385.28;;;5.35;100.00
11525;BME280;5819;49.648;8.330;2024-01-06T05:12:17;99388.03;;;5.31;100.00
11525;BME280;5819;49.648;8.330;2024-01-06T05:14:45;99387.34;;;5.26;100.00
11525;BME280;5819;49.648;8.330;2024-01-06T05:17:15;99381.31;;;5.27;100.00
11525;BME280;5819;49.648;8.330;2024-01-06T05:19:42;99378.72;;;5.27;100.00
11525;BME280;5819;49.648;8.330;2024-01-06T05:22:11;99379.63;;;5.26;100.00
11525;BME280;5819;49.648;8.330;2024-01-06T05:24:39;99379.63;;;5.26;100.00
11525;BME280;5819;49.648;8.330;2024-01-06T05:27:06;99382.16;;;5.27;100.00
11525;BME280;5819;49.648;8.330;2024-01-06T05:29:37;99390.44;;;5.35;100.00
11525;BME280;5819;49.648;8.330;2024-01-06T05:32:06;99395.78;;;5.31;100.00
11525;BME280;5819;49.648;8.330;2024-01-06T05:34:35;99400.81;;;5.34;100.00
11525;BME280;5819;49.648;8.330;2024-01-06T05:37:03;99406.97;;;5.30;100.00
11525;BME280;5819;49.648;8.330;2024-01-06T05:39:31;99399.91;;;5.35;100.00
11525;BME280;5819;49.648;8.330;2024-01-06T05:41:59;99393.91;;;5.34;100.00
11525;BME280;5819;49.648;8.330;2024-01-06T05:44:27;99403.34;;;5.35;100.00
11525;BME280;5819;49.648;8.330;2024-01-06T05:46:55;99405.03;;;5.36;100.00
11525;BME280;5819;49.648;8.330;2024-01-06T05:49:23;99410.31;;;5.33;100.00
11525;BME280;5819;49.648;8.330;2024-01-06T05:51:53;99408.63;;;5.32;100.00
11525;BME280;5819;49.648;8.330;2024-01-06T05:54:20;99412.53;;;5.42;100.00
11525;BME280;5819;49.648;8.330;2024-01-06T05:56:49;99421.28;;;5.38;100.00
11525;BME280;5819;49.648;8.330;2024-01-06T05:59:17;99417.19;;;5.33;100.00
11525;BME280;5819;49.648;8.330;2024-01-06T06:01:45;99418.84;;;5.34;100.00
11525;BME280;5819;49.648;8.330;2024-01-06T06:04:13;99417.19;;;5.33;100.00
11525;BME280;5819;49.648;8.330;2024-01-06T06:06:41;99425.88;;;5.30;100.00
11525;BME280;5819;49.648;8.330;2024-01-06T06:09:10;99422.41;;;5.31;100.00
11525;BME280;5819;49.648;8.330;2024-01-06T06:11:39;99428.56;;;5.27;100.00
11525;BME280;5819;49.648;8.330;2024-01-06T06:14:07;99428.56;;;5.27;100.00
11525;BME280;5819;49.648;8.330;2024-01-06T06:16:36;99433.59;;;5.30;100.00
11525;BME280;5819;49.648;8.330;2024-01-06T06:19:04;99429.28;;;5.31;100.00
11525;BME280;5819;49.648;8.330;2024-01-06T06:21:32;99430.19;;;5.30;100.00
11525;BME280;5819;49.648;8.330;2024-01-06T06:24:01;99438.84;;;5.29;100.00
11525;BME280;5819;49.648;8.330;2024-01-06T06:26:30;99436.13;;;5.32;100.00
11525;BME280;5819;49.648;8.330;2024-01-06T06:28:59;99439.47;;;5.34;100.00
11525;BME280;5819;49.648;8.330;2024-01-06T06:31:28;99442.97;;;5.33;100.00
11525;BME280;5819;49.648;8.330;2024-01-06T06:33:56;99451.44;;;5.36;100.00
11525;BME280;5819;49.648;8.330;2024-01-06T06:36:24;99453.06;;;5.39;100.00
11525;BME280;5819;49.648;8.330;2024-01-06T06:38:52;99460.88;;;5.37;100.00
11525;BME280;5819;49.648;8.330;2024-01-06T06:41:21;99458.28;;;5.37;100.00
11525;BME280;5819;49.648;8.330;2024-01-06T06:43:51;99462.53;;;5.38;100.00
11525;BME280;5819;49.648;8.330;2024-01-06T06:46:19;99461.69;;;5.38;100.00
11525;BME280;5819;49.648;8.330;2024-01-06T06:48:47;99469.50;;;5.36;100.00
11525;BME280;5819;49.648;8.330;2024-01-06T06:51:15;99469.59;;;5.33;100.00
11525;BME280;5819;49.648;8.330;2024-01-06T06:53:43;99473.97;;;5.31;100.00
11525;BME280;5819;49.648;8.330;2024-01-06T06:56:13;99474.81;;;5.32;100.00
11525;BME280;5819;49.648;8.330;2024-01-06T06:58:44;99486.97;;;5.28;100.00
11525;BME280;5819;49.648;8.330;2024-01-06T07:01:14;99482.75;;;5.26;100.00
11525;BME280;5819;49.648;8.330;2024-01-06T07:03:42;99490.66;;;5.21;100.00
11525;BME280;5819;49.648;8.330;2024-01-06T07:06:12;99499.16;;;5.23;100.00
11525;BME280;5819;49.648;8.330;2024-01-06T07:08:40;99497.28;;;5.28;100.00
11525;BME280;5819;49.648;8.330;2024-01-06T07:11:08;99499.78;;;5.30;100.00
11525;BME280;5819;49.648;8.330;2024-01-06T07:13:37;99504.75;;;5.36;100.00
11525;BME280;5819;49.648;8.330;2024-01-06T07:16:06;99510.69;;;5.38;100.00
11525;BME280;5819;49.648;8.330;2024-01-06T07:18:46;99511.25;;;5.46;100.00
11525;BME280;5819;49.648;8.330;2024-01-06T07:21:14;99517.16;;;5.49;100.00
11525;BME280;5819;49.648;8.330;2024-01-06T07:23:42;99514.38;;;5.55;100.00
11525;BME280;5819;49.648;8.330;2024-01-06T07:26:10;99506.63;;;5.55;100.00
11525;BME280;5819;49.648;8.330;2024-01-06T07:28:38;99521.13;;;5.58;100.00
11525;BME280;5819;49.648;8.330;2024-01-06T07:31:06;99520.41;;;5.54;100.00
11525;BME280;5819;49.648;8.330;2024-01-06T07:33:34;99526.47;;;5.53;100.00
11525;BME280;5819;49.648;8.330;2024-01-06T07:36:04;99526.53;;;5.52;100.00
11525;BME280;5819;49.648;8.330;2024-01-06T07:38:32;99538.47;;;5.54;100.00
11525;BME280;5819;49.648;8.330;2024-01-06T07:41:00;99543.53;;;5.57;100.00
11525;BME280;5819;49.648;8.330;2024-01-06T07:43:31;99543.69;;;5.53;100.00
11525;BME280;5819;49.648;8.330;2024-01-06T07:45:58;99543.16;;;5.68;100.00
11525;BME280;5819;49.648;8.330;2024-01-06T07:48:27;99550.56;;;5.77;100.00
11525;BME280;5819;49.648;8.330;2024-01-06T07:50:55;99557.59;;;5.74;100.00
11525;BME280;5819;49.648;8.330;2024-01-06T07:53:24;99558.47;;;5.73;100.00
11525;BME280;5819;49.648;8.330;2024-01-06T07:55:51;99559.88;;;5.81;100.00
11525;BME280;5819;49.648;8.330;2024-01-06T07:58:20;99563.47;;;5.77;100.00
11525;BME280;5819;49.648;8.330;2024-01-06T08:00:48;99566.69;;;5.82;100.00
11525;BME280;5819;49.648;8.330;2024-01-06T08:03:16;99562.72;;;5.98;100.00
11525;BME280;5819;49.648;8.330;2024-01-06T08:05:44;99578.78;;;5.82;100.00
11525;BME280;5819;49.648;8.330;2024-01-06T08:08:13;99577.47;;;5.95;100.00
11525;BME280;5819;49.648;8.330;2024-01-06T08:10:44;99585.56;;;5.84;100.00
11525;BME280;5819;49.648;8.330;2024-01-06T08:13:12;99576.94;;;5.85;100.00
11525;BME280;5819;49.648;8.330;2024-01-06T08:15:40;99581.56;;;5.76;100.00
11525;BME280;5819;49.648;8.330;2024-01-06T08:18:08;99582.91;;;5.86;100.00
11525;BME280;5819;49.648;8.330;2024-01-06T08:20:36;99582.25;;;5.81;100.00
11525;BME280;5819;49.648;8.330;2024-01-06T08:23:04;99585.84;;;5.77;100.00
11525;BME280;5819;49.648;8.330;2024-01-06T08:25:32;99590.13;;;5.78;100.00
11525;BME280;5819;49.648;8.330;2024-01-06T08:28:02;99594.97;;;5.87;100.00
11525;BME280;5819;49.648;8.330;2024-01-06T08:30:30;99592.47;;;5.84;100.00
11525;BME280;5819;49.648;8.330;2024-01-06T08:32:58;99590.72;;;5.84;100.00
11525;BME280;5819;49.648;8.330;2024-01-06T08:35:27;99595.81;;;5.87;100.00
11525;BME280;5819;49.648;8.330;2024-01-06T08:37:54;99587.91;;;5.92;100.00
11525;BME280;5819;49.648;8.330;2024-01-06T08:40:22;99592.78;;;5.99;100.00
11525;BME280;5819;49.648;8.330;2024-01-06T08:42:51;99592.03;;;5.97;100.00
11525;BME280;5819;49.648;8.330;2024-01-06T08:45:20;99596.25;;;5.98;100.00
11525;BME280;5819;49.648;8.330;2024-01-06T08:47:49;99601.34;;;6.01;100.00
11525;BME280;5819;49.648;8.330;2024-01-06T08:50:17;99602.78;;;6.08;100.00
11525;BME280;5819;49.648;8.330;2024-01-06T08:52:44;99607.13;;;6.08;100.00
11525;BME280;5819;49.648;8.330;2024-01-06T08:55:12;99608.97;;;6.28;100.00
11525;BME280;5819;49.648;8.330;2024-01-06T08:57:41;99604.66;;;6.28;100.00
11525;BME280;5819;49.648;8.330;2024-01-06T09:00:10;99606.16;;;6.34;100.00
11525;BME280;5819;49.648;8.330;2024-01-06T09:02:39;99605.19;;;6.36;100.00
11525;BME280;5819;49.648;8.330;2024-01-06T09:05:07;99617.66;;;6.48;100.00
11525;BME280;5819;49.648;8.330;2024-01-06T09:07:35;99614.34;;;6.45;100.00
11525;BME280;5819;49.648;8.330;2024-01-06T09:10:04;99611.13;;;6.83;100.00
11525;BME280;5819;49.648;8.330;2024-01-06T09:12:31;99615.88;;;6.72;100.00
11525;BME280;5819;49.648;8.330;2024-01-06T09:14:59;99615.84;;;6.74;100.00
11525;BME280;5819;49.648;8.330;2024-01-06T09:17:27;99614.16;;;6.73;100.00
11525;BME280;5819;49.648;8.330;2024-01-06T09:19:56;99614.53;;;6.62;100.00
11525;BME280;5819;49.648;8.330;2024-01-06T09:22:25;99623.94;;;6.65;100.00
11525;BME280;5819;49.648;8.330;2024-01-06T09:24:53;99616.00;;;6.69;100.00
11525;BME280;5819;49.648;8.330;2024-01-06T09:27:21;99623.03;;;6.66;100.00
11525;BME280;5819;49.648;8.330;2024-01-06T09:29:49;99627.13;;;6.71;100.00
11525;BME280;5819;49.648;8.330;2024-01-06T09:32:17;99627.38;;;6.65;100.00
11525;BME280;5819;49.648;8.330;2024-01-06T09:34:45;99623.84;;;6.66;100.00
11525;BME280;5819;49.648;8.330;2024-01-06T09:37:15;99631.31;;;6.52;100.00
11525;BME280;5819;49.648;8.330;2024-01-06T09:39:43;99640.84;;;6.50;100.00
11525;BME280;5819;49.648;8.330;2024-01-06T09:42:10;99636.47;;;6.52;100.00
11525;BME280;5819;49.648;8.330;2024-01-06T09:44:39;99643.25;;;6.54;100.00
11525;BME280;5819;49.648;8.330;2024-01-06T09:47:10;99650.16;;;6.54;100.00
11525;BME280;5819;49.648;8.330;2024-01-06T09:49:41;99648.53;;;6.51;100.00
11525;BME280;5819;49.648;8.330;2024-01-06T09:52:21;99650.16;;;6.54;100.00
11525;BME280;5819;49.648;8.330;2024-01-06T09:54:51;99652.94;;;6.49;100.00
11525;BME280;5819;49.648;8.330;2024-01-06T09:57:20;99649.34;;;6.53;100.00
11525;BME280;5819;49.648;8.330;2024-01-06T09:59:48;99650.34;;;6.49;100.00
11525;BME280;5819;49.648;8.330;2024-01-06T10:02:16;99655.22;;;6.57;100.00
11525;BME280;5819;49.648;8.330;2024-01-06T10:04:44;99648.97;;;6.63;100.00
11525;BME280;5819;49.648;8.330;2024-01-06T10:07:12;99644.06;;;6.56;100.00
11525;BME280;5819;49.648;8.330;2024-01-06T10:09:42;99666.41;;;6.57;100.00
11525;BME280;5819;49.648;8.330;2024-01-06T10:12:10;99661.34;;;6.54;100.00
11525;BME280;5819;49.648;8.330;2024-01-06T10:14:38;99656.16;;;6.54;100.00
11525;BME280;5819;49.648;8.330;2024-01-06T10:17:06;99655.06;;;6.62;100.00
11525;BME280;5819;49.648;8.330;2024-01-06T10:19:35;99661.13;;;6.61;100.00
11525;BME280;5819;49.648;8.330;2024-01-06T10:22:03;99653.81;;;6.72;100.00
11525;BME280;5819;49.648;8.330;2024-01-06T10:24:31;99655.72;;;6.67;100.00
11525;BME280;5819;49.648;8.330;2024-01-06T10:27:00;99648.41;;;6.78;100.00
11525;BME280;5819;49.648;8.330;2024-01-06T10:29:28;99650.94;;;6.79;100.00
11525;BME280;5819;49.648;8.330;2024-01-06T10:31:56;99658.69;;;6.79;100.00
11525;BME280;5819;49.648;8.330;2024-01-06T10:34:26;99655.16;;;6.82;100.00
11525;BME280;5819;49.648;8.330;2024-01-06T10:36:54;99645.53;;;6.85;100.00
11525;BME280;5819;49.648;8.330;2024-01-06T10:39:23;99638.41;;;6.90;100.00
11525;BME280;5819;49.648;8.330;2024-01-06T10:41:52;99646.38;;;6.86;100.00
11525;BME280;5819;49.648;8.330;2024-01-06T10:44:21;99645.38;;;6.90;100.00
11525;BME280;5819;49.648;8.330;2024-01-06T10:46:51;99641.81;;;6.92;100.00
11525;BME280;5819;49.648;8.330;2024-01-06T10:49:22;99642.22;;;7.03;100.00
11525;BME280;5819;49.648;8.330;2024-01-06T10:51:51;99637.66;;;7.10;100.00
11525;BME280;5819;49.648;8.330;2024-01-06T10:54:20;99638.06;;;7.21;100.00
11525;BME280;5819;49.648;8.330;2024-01-06T10:56:51;99630.28;;;7.63;100.00
11525;BME280;5819;49.648;8.330;2024-01-06T10:59:21;99632.75;;;7.66;100.00
11525;BME280;5819;49.648;8.330;2024-01-06T11:01:52;99632.28;;;7.77;100.00
11525;BME280;5819;49.648;8.330;2024-01-06T11:04:23;99621.66;;;7.83;100.00
11525;BME280;5819;49.648;8.330;2024-01-06T11:06:51;99620.53;;;7.90;100.00
11525;BME280;5819;49.648;8.330;2024-01-06T11:09:22;99614.56;;;7.88;100.00
11525;BME280;5819;49.648;8.330;2024-01-06T11:11:52;99628.09;;;7.74;100.00
11525;BME280;5819;49.648;8.330;2024-01-06T11:14:24;99625.75;;;7.68;100.00
11525;BME280;5819;49.648;8.330;2024-01-06T11:16:52;99632.66;;;7.47;100.00
11525;BME280;5819;49.648;8.330;2024-01-06T11:19:43;99630.75;;;7.52;100.00
11525;BME280;5819;49.648;8.330;2024-01-06T11:22:23;99630.03;;;7.69;100.00
11525;BME280;5819;49.648;8.330;2024-01-06T11:24:52;99629.38;;;7.84;100.00
11525;BME280;5819;49.648;8.330;2024-01-06T11:27:24;99623.03;;;7.71;100.00
11525;BME280;5819;49.648;8.330;2024-01-06T11:29:54;99624.06;;;7.67;100.00
11525;BME280;5819;49.648;8.330;2024-01-06T11:32:28;99619.88;;;7.65;100.00
11525;BME280;5819;49.648;8.330;2024-01-06T11:35:06;99621.56;;;7.66;100.00
11525;BME280;5819;49.648;8.330;2024-01-06T11:37:36;99624.72;;;7.72;100.00
11525;BME280;5819;49.648;8.330;2024-01-06T11:40:09;99611.50;;;7.78;100.00
11525;BME280;5819;49.648;8.330;2024-01-06T11:42:37;99617.59;;;7.77;100.00
11525;BME280;5819;49.648;8.330;2024-01-06T11:45:07;99618.47;;;7.78;100.00
11525;BME280;5819;49.648;8.330;2024-01-06T11:47:35;99611.50;;;7.78;100.00
11525;BME280;5819;49.648;8.330;2024-01-06T11:50:04;99611.59;;;7.77;100.00
11525;BME280;5819;49.648;8.330;2024-01-06T11:52:34;99613.00;;;7.64;100.00
11525;BME280;5819;49.648;8.330;2024-01-06T11:55:02;99614.03;;;7.60;100.00
11525;BME280;5819;49.648;8.330;2024-01-06T11:57:29;99612.44;;;7.57;100.00
11525;BME280;5819;49.648;8.330;2024-01-06T11:59:57;99611.31;;;7.63;100.00
11525;BME280;5819;49.648;8.330;2024-01-06T12:02:27;99611.31;;;7.63;100.00
11525;BME280;5819;49.648;8.330;2024-01-06T12:04:55;99614.31;;;7.53;100.00
11525;BME280;5819;49.648;8.330;2024-01-06T12:07:22;99616.81;;;7.55;100.00
11525;BME280;5819;49.648;8.330;2024-01-06T12:09:51;99610.38;;;7.65;100.00
11525;BME280;5819;49.648;8.330;2024-01-06T12:12:27;99614.56;;;7.68;100.00
11525;BME280;5819;49.648;8.330;2024-01-06T12:14:55;99619.09;;;7.63;100.00
11525;BME280;5819;49.648;8.330;2024-01-06T12:17:29;99616.38;;;7.66;100.00
11525;BME280;5819;49.648;8.330;2024-01-06T12:19:58;99611.13;;;7.67;100.00
11525;BME280;5819;49.648;8.330;2024-01-06T12:22:27;99612.56;;;7.54;100.00
11525;BME280;5819;49.648;8.330;2024-01-06T12:24:55;99609.13;;;7.53;100.00
11525;BME280;5819;49.648;8.330;2024-01-06T12:27:24;99608.44;;;7.50;100.00
11525;BME280;5819;49.648;8.330;2024-01-06T12:29:52;99608.28;;;7.53;100.00
11525;BME280;5819;49.648;8.330;2024-01-06T12:32:20;99610.94;;;7.51;100.00
11525;BME280;5819;49.648;8.330;2024-01-06T12:34:50;99615.41;;;7.48;100.00
11525;BME280;5819;49.648;8.330;2024-01-06T12:37:18;99612.94;;;7.45;100.00
11525;BME280;5819;49.648;8.330;2024-01-06T12:39:47;99613.19;;;7.39;100.00
11525;BME280;5819;49.648;8.330;2024-01-06T12:42:15;99617.84;;;7.31;100.00
11525;BME280;5819;49.648;8.330;2024-01-06T12:44:43;99617.13;;;7.27;100.00
11525;BME280;5819;49.648;8.330;2024-01-06T12:47:11;99629.19;;;7.27;100.00
11525;BME280;5819;49.648;8.330;2024-01-06T12:49:40;99620.50;;;7.29;100.00
11525;BME280;5819;49.648;8.330;2024-01-06T12:52:09;99619.53;;;7.32;100.00
11525;BME280;5819;49.648;8.330;2024-01-06T12:54:37;99627.16;;;7.35;100.00
11525;BME280;5819;49.648;8.330;2024-01-06T12:57:06;99621.13;;;7.34;100.00
11525;BME280;5819;49.648;8.330;2024-01-06T12:59:33;99618.53;;;7.34;100.00
11525;BME280;5819;49.648;8.330;2024-01-06T13:02:01;99620.19;;;7.37;100.00
11525;BME280;5819;49.648;8.330;2024-01-06T13:04:29;99623.47;;;7.40;100.00
11525;BME280;5819;49.648;8.330;2024-01-06T13:06:58;99622.50;;;7.43;100.00
11525;BME280;5819;49.648;8.330;2024-01-06T13:09:30;99625.16;;;7.41;100.00
11525;BME280;5819;49.648;8.330;2024-01-06T13:11:59;99626.06;;;7.40;100.00
11525;BME280;5819;49.648;8.330;2024-01-06T13:14:27;99627.81;;;7.40;100.00
11525;BME280;5819;49.648;8.330;2024-01-06T13:16:57;99627.03;;;7.38;100.00